sensor_id;sensor_type;location;lat;lon;timestamp;pressure;altitude;pressure_sealevel;temperature;humidity
13478;BME280;12598;62.382;17.344;2023-04-25T00:00:43;100657.38;;;18.61;23.38
13478;BME280;12598;62.382;17.344;2023-04-25T00:01:45;100662.75;;;18.61;23.35
13478;BME280;12598;62.382;17.344;2023-04-25T00:02:47;100657.38;;;18.61;23.07
13478;BME280;12598;62.382;17.344;2023-04-25T00:03:49;100657.38;;;18.61;23.26
13478;BME280;12598;62.382;17.344;2023-04-25T00:04:52;100652.34;;;18.58;23.11
13478;BME280;12598;62.382;17.344;2023-04-25T00:05:54;100660.06;;;18.61;23.01
13478;BME280;12598;62.382;17.344;2023-04-25T00:06:59;100654.72;;;18.61;23.26
13478;BME280;12598;62.382;17.344;2023-04-25T00:08:03;100657.38;;;18.61;23.21
13478;BME280;12598;62.382;17.344;2023-04-25T00:09:06;100654.03;;;18.59;23.44
13478;BME280;12598;62.382;17.344;2023-04-25T00:10:12;100654.72;;;18.61;23.46
13478;BME280;12598;62.382;17.344;2023-04-25T00:11:14;100648.97;;;18.56;23.42
13478;BME280;12598;62.382;17.344;2023-04-25T00:12:16;100625.13;;;18.45;23.70
13478;BME280;12598;62.382;17.344;2023-04-25T00:13:18;100653.03;;;18.60;23.46
13478;BME280;12598;62.382;17.344;2023-04-25T00:14:20;100654.34;;;18.56;23.42
13478;BME280;12598;62.382;17.344;2023-04-25T00:15:23;100627.50;;;18.48;23.43
13478;BME280;12598;62.382;17.344;2023-04-25T00:16:25;100642.50;;;18.58;23.13
13478;BME280;12598;62.382;17.344;2023-04-25T00:17:28;100643.50;;;18.57;23.35
13478;BME280;12598;62.382;17.344;2023-04-25T00:18:31;100637.13;;;18.58;23.31
13478;BME280;12598;62.382;17.344;2023-04-25T00:19:34;100630.41;;;18.54;23.30
13478;BME280;12598;62.382;17.344;2023-04-25T00:20:36;100630.25;;;18.56;23.36
13478;BME280;12598;62.382;17.344;2023-04-25T00:21:38;100634.59;;;18.57;23.13
13478;BME280;12598;62.382;17.344;2023-04-25T00:22:42;100628.41;;;18.56;23.50
13478;BME280;12598;62.382;17.344;2023-04-25T00:23:44;100635.44;;;18.57;23.36
13478;BME280;12598;62.382;17.344;2023-04-25T00:24:47;100622.81;;;18.50;23.31
13478;BME280;12598;62.382;17.344;2023-04-25T00:25:50;100629.41;;;18.55;23.26
13478;BME280;12598;62.382;17.344;2023-04-25T00:26:52;100629.41;;;18.55;23.39
13478;BME280;12598;62.382;17.344;2023-04-25T00:27:54;100619.47;;;18.48;23.22
13478;BME280;12598;62.382;17.344;2023-04-25T00:28:56;100634.91;;;18.54;23.55
13478;BME280;12598;62.382;17.344;2023-04-25T00:29:58;100629.56;;;18.54;23.06
13478;BME280;12598;62.382;17.344;2023-04-25T00:31:00;100631.41;;;18.53;23.39
13478;BME280;12598;62.382;17.344;2023-04-25T00:32:02;100621.50;;;18.54;23.16
13478;BME280;12598;62.382;17.344;2023-04-25T00:33:04;100624.19;;;18.54;23.26
13478;BME280;12598;62.382;17.344;2023-04-25T00:34:07;100626.03;;;18.53;23.56
13478;BME280;12598;62.382;17.344;2023-04-25T00:35:10;100623.38;;;18.53;23.56
13478;BME280;12598;62.382;17.344;2023-04-25T00:36:12;100602.34;;;18.41;23.16
13478;BME280;12598;62.382;17.344;2023-04-25T00:37:14;100622.50;;;18.53;23.62
13478;BME280;12598;62.382;17.344;2023-04-25T00:38:17;100617.34;;;18.51;23.11
13478;BME280;12598;62.382;17.344;2023-04-25T00:39:18;100619.16;;;18.51;23.49
13478;BME280;12598;62.382;17.344;2023-04-25T00:40:21;100604.75;;;18.52;23.45
13478;BME280;12598;62.382;17.344;2023-04-25T00:41:25;100609.28;;;18.51;23.43
13478;BME280;12598;62.382;17.344;2023-04-25T00:42:28;100608.31;;;18.52;23.11
13478;BME280;12598;62.382;17.344;2023-04-25T00:43:30;100606.44;;;18.53;23.14
13478;BME280;12598;62.382;17.344;2023-04-25T00:44:34;100603.94;;;18.51;23.37
13478;BME280;12598;62.382;17.344;2023-04-25T00:45:38;100607.63;;;18.50;23.21
13478;BME280;12598;62.382;17.344;2023-04-25T00:46:40;100594.38;;;18.49;23.29
13478;BME280;12598;62.382;17.344;2023-04-25T00:47:43;100603.09;;;18.51;23.59
13478;BME280;12598;62.382;17.344;2023-04-25T00:48:46;100608.44;;;18.51;23.77
13478;BME280;12598;62.382;17.344;2023-04-25T00:49:48;100592.13;;;18.44;23.49
13478;BME280;12598;62.382;17.344;2023-04-25T00:50:53;100601.41;;;18.50;23.39
13478;BME280;12598;62.382;17.344;2023-04-25T00:51:56;100589.47;;;18.44;23.52
13478;BME280;12598;62.382;17.344;2023-04-25T00:52:58;100598.72;;;18.50;23.62
13478;BME280;12598;62.382;17.344;2023-04-25T00:54:00;100586.34;;;18.49;23.58
13478;BME280;12598;62.382;17.344;2023-04-25T00:55:03;100587.34;;;18.48;23.71
13478;BME280;12598;62.382;17.344;2023-04-25T00:56:05;100593.50;;;18.48;23.17
13478;BME280;12598;62.382;17.344;2023-04-25T00:57:07;100560.25;;;18.33;23.35
13478;BME280;12598;62.382;17.344;2023-04-25T00:58:09;100577.94;;;18.44;23.53
13478;BME280;12598;62.382;17.344;2023-04-25T00:59:11;100589.00;;;18.49;23.26
13478;BME280;12598;62.382;17.344;2023-04-25T01:00:13;100585.97;;;18.44;23.40
13478;BME280;12598;62.382;17.344;2023-04-25T01:01:17;100589.00;;;18.49;23.79
13478;BME280;12598;62.382;17.344;2023-04-25T01:02:20;100594.81;;;18.44;23.38
13478;BME280;12598;62.382;17.344;2023-04-25T01:03:22;100588.31;;;18.47;23.38
13478;BME280;12598;62.382;17.344;2023-04-25T01:04:26;100582.97;;;18.47;23.54
13478;BME280;12598;62.382;17.344;2023-04-25T01:05:29;100592.69;;;18.48;23.43
13478;BME280;12598;62.382;17.344;2023-04-25T01:06:31;100584.78;;;18.46;23.34
13478;BME280;12598;62.382;17.344;2023-04-25T01:07:33;100588.63;;;18.44;23.51
13478;BME280;12598;62.382;17.344;2023-04-25T01:08:37;100579.44;;;18.46;23.41
13478;BME280;12598;62.382;17.344;2023-04-25T01:09:40;100572.03;;;18.40;23.38
13478;BME280;12598;62.382;17.344;2023-04-25T01:10:42;100590.16;;;18.46;23.59
13478;BME280;12598;62.382;17.344;2023-04-25T01:11:44;100591.00;;;18.47;23.27
13478;BME280;12598;62.382;17.344;2023-04-25T01:12:46;100594.69;;;18.46;23.38
13478;BME280;12598;62.382;17.344;2023-04-25T01:13:48;100593.81;;;18.45;23.69
13478;BME280;12598;62.382;17.344;2023-04-25T01:14:50;100594.81;;;18.44;23.61
13478;BME280;12598;62.382;17.344;2023-04-25T01:15:52;100596.66;;;18.44;23.42
13478;BME280;12598;62.382;17.344;2023-04-25T01:16:55;100594.13;;;18.42;23.64
13478;BME280;12598;62.382;17.344;2023-04-25T01:17:57;100596.66;;;18.44;23.24
13478;BME280;12598;62.382;17.344;2023-04-25T01:18:59;100601.16;;;18.43;23.74
13478;BME280;12598;62.382;17.344;2023-04-25T01:20:05;100602.16;;;18.42;23.67
13478;BME280;12598;62.382;17.344;2023-04-25T01:21:11;100608.19;;;18.44;23.75
13478;BME280;12598;62.382;17.344;2023-04-25T01:22:13;100593.06;;;18.35;23.53
13478;BME280;12598;62.382;17.344;2023-04-25T01:23:16;100608.06;;;18.46;23.64
13478;BME280;12598;62.382;17.344;2023-04-25T01:24:18;100599.47;;;18.42;23.71
13478;BME280;12598;62.382;17.344;2023-04-25T01:25:21;100606.84;;;18.40;23.55
13478;BME280;12598;62.382;17.344;2023-04-25T01:26:23;100610.19;;;18.42;23.47
13478;BME280;12598;62.382;17.344;2023-04-25T01:27:26;100617.22;;;18.43;23.51
13478;BME280;12598;62.382;17.344;2023-04-25T01:28:29;100616.41;;;18.43;23.75
13478;BME280;12598;62.382;17.344;2023-04-25T01:29:32;100617.53;;;18.40;23.58
13478;BME280;12598;62.382;17.344;2023-04-25T01:30:36;100624.44;;;18.43;23.51
13478;BME280;12598;62.382;17.344;2023-04-25T01:31:39;100625.44;;;18.42;23.77
13478;BME280;12598;62.382;17.344;2023-04-25T01:32:42;100632.47;;;18.43;23.83
13478;BME280;12598;62.382;17.344;2023-04-25T01:33:44;100619.00;;;18.35;23.61
13478;BME280;12598;62.382;17.344;2023-04-25T01:34:47;100636.13;;;18.42;23.54
13478;BME280;12598;62.382;17.344;2023-04-25T01:35:49;100636.13;;;18.42;23.83
13478;BME280;12598;62.382;17.344;2023-04-25T01:36:54;100636.97;;;18.42;23.55
13478;BME280;12598;62.382;17.344;2023-04-25T01:37:56;100636.13;;;18.42;23.92
13478;BME280;12598;62.382;17.344;2023-04-25T01:38:58;100625.44;;;18.42;23.78
13478;BME280;12598;62.382;17.344;2023-04-25T01:40:00;100625.44;;;18.42;23.31
13478;BME280;12598;62.382;17.344;2023-04-25T01:41:02;100610.97;;;18.35;23.58
13478;BME280;12598;62.382;17.344;2023-04-25T01:42:04;100623.75;;;18.41;23.81
13478;BME280;12598;62.382;17.344;2023-04-25T01:43:07;100615.84;;;18.39;23.63
13478;BME280;12598;62.382;17.344;2023-04-25T01:44:14;100612.03;;;18.42;23.55
13478;BME280;12598;62.382;17.344;2023-04-25T01:45:17;100600.28;;;18.35;23.63
13478;BME280;12598;62.382;17.344;2023-04-25T01:46:19;100598.59;;;18.34;23.67
13478;BME280;12598;62.382;17.344;2023-04-25T01:47:21;100601.66;;;18.39;23.66
13478;BME280;12598;62.382;17.344;2023-04-25T01:48:23;100603.16;;;18.41;23.88
13478;BME280;12598;62.382;17.344;2023-04-25T01:49:25;100612.19;;;18.40;23.89
13478;BME280;12598;62.382;17.344;2023-04-25T01:50:26;100599.78;;;18.39;23.90
13478;BME280;12598;62.382;17.344;2023-04-25T01:51:29;100596.13;;;18.40;23.67
13478;BME280;12598;62.382;17.344;2023-04-25T01:52:32;100593.44;;;18.40;23.62
13478;BME280;12598;62.382;17.344;2023-04-25T01:53:34;100596.97;;;18.41;23.32
13478;BME280;12598;62.382;17.344;2023-04-25T01:54:37;100598.81;;;18.40;23.92
13478;BME280;12598;62.382;17.344;2023-04-25T01:55:40;100590.78;;;18.40;23.83
13478;BME280;12598;62.382;17.344;2023-04-25T01:56:50;100589.78;;;18.41;23.70
13478;BME280;12598;62.382;17.344;2023-04-25T01:57:53;100587.09;;;18.41;23.78
13478;BME280;12598;62.382;17.344;2023-04-25T01:59:03;100584.28;;;18.43;23.77
13478;BME280;12598;62.382;17.344;2023-04-25T02:00:23;100585.66;;;18.47;23.51
13478;BME280;12598;62.382;17.344;2023-04-25T02:01:25;100575.25;;;18.44;23.63
13478;BME280;12598;62.382;17.344;2023-04-25T02:02:45;100573.09;;;18.47;23.59
13478;BME280;12598;62.382;17.344;2023-04-25T02:04:06;100577.44;;;18.48;23.98
13478;BME280;12598;62.382;17.344;2023-04-25T02:05:10;100580.28;;;18.47;23.83
13478;BME280;12598;62.382;17.344;2023-04-25T02:06:14;100575.25;;;18.44;23.72
13478;BME280;12598;62.382;17.344;2023-04-25T02:07:18;100569.03;;;18.43;24.18
13478;BME280;12598;62.382;17.344;2023-04-25T02:08:27;100566.53;;;18.42;23.78
13478;BME280;12598;62.382;17.344;2023-04-25T02:09:29;100571.88;;;18.42;24.04
13478;BME280;12598;62.382;17.344;2023-04-25T02:10:32;100570.22;;;18.41;23.76
13478;BME280;12598;62.382;17.344;2023-04-25T02:11:53;100565.69;;;18.41;23.51
13478;BME280;12598;62.382;17.344;2023-04-25T02:13:02;100565.38;;;18.44;23.79
13478;BME280;12598;62.382;17.344;2023-04-25T02:14:24;100565.22;;;18.46;23.73
13478;BME280;12598;62.382;17.344;2023-04-25T02:15:39;100559.50;;;18.41;23.96
13478;BME280;12598;62.382;17.344;2023-04-25T02:16:53;100556.50;;;18.44;23.58
13478;BME280;12598;62.382;17.344;2023-04-25T02:17:57;100566.38;;;18.43;23.68
13478;BME280;12598;62.382;17.344;2023-04-25T02:18:59;100568.53;;;18.40;23.81
13478;BME280;12598;62.382;17.344;2023-04-25T02:20:01;100556.44;;;18.36;23.96
13478;BME280;12598;62.382;17.344;2023-04-25T02:21:04;100573.03;;;18.39;23.77
13478;BME280;12598;62.382;17.344;2023-04-25T02:22:07;100568.28;;;18.33;23.80
13478;BME280;12598;62.382;17.344;2023-04-25T02:23:08;100565.47;;;18.35;23.96
13478;BME280;12598;62.382;17.344;2023-04-25T02:24:10;100568.84;;;18.37;24.07
13478;BME280;12598;62.382;17.344;2023-04-25T02:25:13;100560.81;;;18.37;23.83
13478;BME280;12598;62.382;17.344;2023-04-25T02:26:15;100565.16;;;18.38;23.79
13478;BME280;12598;62.382;17.344;2023-04-25T02:27:17;100561.81;;;18.36;24.02
13478;BME280;12598;62.382;17.344;2023-04-25T02:28:18;100566.97;;;18.37;23.82
13478;BME280;12598;62.382;17.344;2023-04-25T02:29:21;100580.38;;;18.37;23.95
13478;BME280;12598;62.382;17.344;2023-04-25T02:30:23;100569.66;;;18.37;23.90
13478;BME280;12598;62.382;17.344;2023-04-25T02:31:24;100568.84;;;18.37;23.81
13478;BME280;12598;62.382;17.344;2023-04-25T02:32:27;100577.69;;;18.37;24.27
13478;BME280;12598;62.382;17.344;2023-04-25T02:33:29;100571.50;;;18.37;23.92
13478;BME280;12598;62.382;17.344;2023-04-25T02:34:31;100566.16;;;18.37;24.00
13478;BME280;12598;62.382;17.344;2023-04-25T02:35:34;100567.16;;;18.36;24.25
13478;BME280;12598;62.382;17.344;2023-04-25T02:36:36;100550.88;;;18.29;24.04
13478;BME280;12598;62.382;17.344;2023-04-25T02:37:39;100561.81;;;18.36;24.08
13478;BME280;12598;62.382;17.344;2023-04-25T02:38:41;100558.13;;;18.37;24.23
13478;BME280;12598;62.382;17.344;2023-04-25T02:39:43;100556.44;;;18.36;24.11
13478;BME280;12598;62.382;17.344;2023-04-25T02:40:46;100546.75;;;18.35;24.13
13478;BME280;12598;62.382;17.344;2023-04-25T02:41:48;100554.78;;;18.35;24.14
13478;BME280;12598;62.382;17.344;2023-04-25T02:42:50;100552.91;;;18.35;24.07
13478;BME280;12598;62.382;17.344;2023-04-25T02:43:52;100534.25;;;18.26;24.22
13478;BME280;12598;62.382;17.344;2023-04-25T02:44:54;100551.41;;;18.33;24.15
13478;BME280;12598;62.382;17.344;2023-04-25T02:45:56;100558.44;;;18.34;24.31
13478;BME280;12598;62.382;17.344;2023-04-25T02:46:58;100542.84;;;18.29;24.09
13478;BME280;12598;62.382;17.344;2023-04-25T02:48:00;100553.09;;;18.34;23.95
13478;BME280;12598;62.382;17.344;2023-04-25T02:49:02;100549.56;;;18.33;24.27
13478;BME280;12598;62.382;17.344;2023-04-25T02:50:04;100555.06;;;18.32;24.22
13478;BME280;12598;62.382;17.344;2023-04-25T02:51:06;100556.75;;;18.33;24.21
13478;BME280;12598;62.382;17.344;2023-04-25T02:52:08;100551.41;;;18.33;24.47
13478;BME280;12598;62.382;17.344;2023-04-25T02:53:10;100546.06;;;18.33;24.42
13478;BME280;12598;62.382;17.344;2023-04-25T02:54:19;100546.06;;;18.33;24.14
13478;BME280;12598;62.382;17.344;2023-04-25T02:55:22;100548.56;;;18.34;24.17
13478;BME280;12598;62.382;17.344;2023-04-25T02:56:28;100552.09;;;18.35;24.46
13478;BME280;12598;62.382;17.344;2023-04-25T02:57:31;100552.22;;;18.33;24.40
13478;BME280;12598;62.382;17.344;2023-04-25T02:58:33;100547.72;;;18.34;24.37
13478;BME280;12598;62.382;17.344;2023-04-25T02:59:34;100548.72;;;18.33;24.14
13478;BME280;12598;62.382;17.344;2023-04-25T03:00:36;100553.09;;;18.34;24.15
13478;BME280;12598;62.382;17.344;2023-04-25T03:01:38;100557.59;;;18.33;24.11
13478;BME280;12598;62.382;17.344;2023-04-25T03:02:40;100555.91;;;18.32;23.93
13478;BME280;12598;62.382;17.344;2023-04-25T03:03:42;100544.38;;;18.32;24.10
13478;BME280;12598;62.382;17.344;2023-04-25T03:04:44;100545.19;;;18.32;24.15
13478;BME280;12598;62.382;17.344;2023-04-25T03:05:46;100543.50;;;18.31;24.31
13478;BME280;12598;62.382;17.344;2023-04-25T03:06:50;100547.03;;;18.32;24.16
13478;BME280;12598;62.382;17.344;2023-04-25T03:07:54;100536.16;;;18.33;24.13
13478;BME280;12598;62.382;17.344;2023-04-25T03:08:56;100540.69;;;18.33;24.21
13478;BME280;12598;62.382;17.344;2023-04-25T03:09:58;100546.88;;;18.33;24.36
13478;BME280;12598;62.382;17.344;2023-04-25T03:11:03;100544.06;;;18.35;24.54
13478;BME280;12598;62.382;17.344;2023-04-25T03:12:05;100544.19;;;18.33;24.20
13478;BME280;12598;62.382;17.344;2023-04-25T03:13:08;100545.19;;;18.32;24.23
13478;BME280;12598;62.382;17.344;2023-04-25T03:14:10;100546.06;;;18.33;24.46
13478;BME280;12598;62.382;17.344;2023-04-25T03:15:12;100543.50;;;18.31;24.15
13478;BME280;12598;62.382;17.344;2023-04-25T03:16:14;100512.06;;;18.16;24.12
13478;BME280;12598;62.382;17.344;2023-04-25T03:17:16;100535.66;;;18.30;24.26
13478;BME280;12598;62.382;17.344;2023-04-25T03:18:18;100536.47;;;18.30;24.07
13478;BME280;12598;62.382;17.344;2023-04-25T03:19:19;100544.38;;;18.32;24.36
13478;BME280;12598;62.382;17.344;2023-04-25T03:20:22;100517.09;;;18.19;24.38
13478;BME280;12598;62.382;17.344;2023-04-25T03:21:24;100533.81;;;18.30;24.12
13478;BME280;12598;62.382;17.344;2023-04-25T03:22:26;100528.44;;;18.30;24.41
13478;BME280;12598;62.382;17.344;2023-04-25T03:23:28;100533.66;;;18.32;24.48
13478;BME280;12598;62.382;17.344;2023-04-25T03:24:30;100530.31;;;18.30;24.46
13478;BME280;12598;62.382;17.344;2023-04-25T03:25:32;100532.97;;;18.30;24.48
13478;BME280;12598;62.382;17.344;2023-04-25T03:26:34;100532.97;;;18.30;24.63
13478;BME280;12598;62.382;17.344;2023-04-25T03:27:36;100530.31;;;18.30;24.60
13478;BME280;12598;62.382;17.344;2023-04-25T03:28:38;100527.19;;;18.25;24.41
13478;BME280;12598;62.382;17.344;2023-04-25T03:29:41;100526.78;;;18.29;24.52
13478;BME280;12598;62.382;17.344;2023-04-25T03:30:43;100527.63;;;18.30;24.58
13478;BME280;12598;62.382;17.344;2023-04-25T03:31:45;100524.94;;;18.30;24.36
13478;BME280;12598;62.382;17.344;2023-04-25T03:32:47;100519.16;;;18.25;24.39
13478;BME280;12598;62.382;17.344;2023-04-25T03:33:51;100526.63;;;18.31;24.57
13478;BME280;12598;62.382;17.344;2023-04-25T03:34:55;100524.78;;;18.31;24.28
13478;BME280;12598;62.382;17.344;2023-04-25T03:35:59;100526.63;;;18.31;24.54
13478;BME280;12598;62.382;17.344;2023-04-25T03:37:02;100521.41;;;18.29;24.33
13478;BME280;12598;62.382;17.344;2023-04-25T03:38:09;100520.44;;;18.30;24.40
13478;BME280;12598;62.382;17.344;2023-04-25T03:39:13;100519.59;;;18.30;24.52
13478;BME280;12598;62.382;17.344;2023-04-25T03:40:20;100510.56;;;18.31;24.48
13478;BME280;12598;62.382;17.344;2023-04-25T03:41:54;100516.13;;;18.37;24.25
13478;BME280;12598;62.382;17.344;2023-04-25T03:42:56;100517.28;;;18.35;24.08
13478;BME280;12598;62.382;17.344;2023-04-25T03:43:58;100509.56;;;18.32;24.26
13478;BME280;12598;62.382;17.344;2023-04-25T03:45:01;100514.25;;;18.30;24.81
13478;BME280;12598;62.382;17.344;2023-04-25T03:46:03;100512.56;;;18.29;24.43
13478;BME280;12598;62.382;17.344;2023-04-25T03:47:05;100504.53;;;18.29;24.68
13478;BME280;12598;62.382;17.344;2023-04-25T03:48:08;100510.84;;;18.28;24.59
13478;BME280;12598;62.382;17.344;2023-04-25T03:49:10;100496.38;;;18.21;24.45
13478;BME280;12598;62.382;17.344;2023-04-25T03:50:47;100511.78;;;18.36;24.45
13478;BME280;12598;62.382;17.344;2023-04-25T03:51:49;100505.91;;;18.33;24.66
13478;BME280;12598;62.382;17.344;2023-04-25T03:52:51;100506.22;;;18.30;24.68
13478;BME280;12598;62.382;17.344;2023-04-25T03:53:53;100504.69;;;18.27;24.34
13478;BME280;12598;62.382;17.344;2023-04-25T03:55:13;100508.72;;;18.31;24.65
13478;BME280;12598;62.382;17.344;2023-04-25T03:56:15;100508.91;;;18.30;24.69
13478;BME280;12598;62.382;17.344;2023-04-25T03:57:19;100501.84;;;18.29;24.34
13478;BME280;12598;62.382;17.344;2023-04-25T03:58:21;100501.84;;;18.29;24.61
13478;BME280;12598;62.382;17.344;2023-04-25T03:59:25;100500.16;;;18.28;24.60
13478;BME280;12598;62.382;17.344;2023-04-25T04:00:27;100498.47;;;18.27;24.58
13478;BME280;12598;62.382;17.344;2023-04-25T04:01:29;100494.97;;;18.26;24.32
13478;BME280;12598;62.382;17.344;2023-04-25T04:02:31;100487.91;;;18.25;24.43
13478;BME280;12598;62.382;17.344;2023-04-25T04:03:35;100479.88;;;18.25;24.72
13478;BME280;12598;62.382;17.344;2023-04-25T04:04:40;100486.94;;;18.26;24.34
13478;BME280;12598;62.382;17.344;2023-04-25T04:05:43;100485.22;;;18.25;24.58
13478;BME280;12598;62.382;17.344;2023-04-25T04:06:45;100479.88;;;18.25;24.30
13478;BME280;12598;62.382;17.344;2023-04-25T04:07:52;100473.97;;;18.22;24.59
13478;BME280;12598;62.382;17.344;2023-04-25T04:08:54;100473.66;;;18.25;24.36
13478;BME280;12598;62.382;17.344;2023-04-25T04:09:57;100479.19;;;18.23;24.33
13478;BME280;12598;62.382;17.344;2023-04-25T04:11:04;100473.16;;;18.21;24.38
13478;BME280;12598;62.382;17.344;2023-04-25T04:12:07;100471.97;;;18.24;24.58
13478;BME280;12598;62.382;17.344;2023-04-25T04:13:11;100472.97;;;18.23;24.38
13478;BME280;12598;62.382;17.344;2023-04-25T04:14:13;100476.34;;;18.25;24.53
13478;BME280;12598;62.382;17.344;2023-04-25T04:15:18;100471.97;;;18.24;24.42
13478;BME280;12598;62.382;17.344;2023-04-25T04:16:22;100469.31;;;18.24;24.68
13478;BME280;12598;62.382;17.344;2023-04-25T04:17:24;100462.91;;;18.17;24.47
13478;BME280;12598;62.382;17.344;2023-04-25T04:18:27;100477.34;;;18.24;24.42
13478;BME280;12598;62.382;17.344;2023-04-25T04:19:30;100468.47;;;18.23;24.75
13478;BME280;12598;62.382;17.344;2023-04-25T04:20:53;100450.53;;;18.16;24.29
13478;BME280;12598;62.382;17.344;2023-04-25T04:21:54;100481.69;;;18.25;24.45
13478;BME280;12598;62.382;17.344;2023-04-25T04:22:56;100473.97;;;18.22;24.69
13478;BME280;12598;62.382;17.344;2023-04-25T04:23:59;100480.00;;;18.24;24.59
13478;BME280;12598;62.382;17.344;2023-04-25T04:25:05;100474.84;;;18.22;24.63
13478;BME280;12598;62.382;17.344;2023-04-25T04:26:31;100472.56;;;18.27;24.37
13478;BME280;12598;62.382;17.344;2023-04-25T04:27:42;100470.72;;;18.28;24.47
13478;BME280;12598;62.382;17.344;2023-04-25T04:29:07;100473.09;;;18.31;24.46
13478;BME280;12598;62.382;17.344;2023-04-25T04:30:15;100470.56;;;18.29;24.46
13478;BME280;12598;62.382;17.344;2023-04-25T04:31:31;100471.41;;;18.30;24.64
13478;BME280;12598;62.382;17.344;2023-04-25T04:32:34;100469.03;;;18.27;24.28
13478;BME280;12598;62.382;17.344;2023-04-25T04:33:38;100462.97;;;18.25;24.52
13478;BME280;12598;62.382;17.344;2023-04-25T04:34:41;100466.63;;;18.24;24.33
13478;BME280;12598;62.382;17.344;2023-04-25T04:35:46;100447.16;;;18.14;24.32
13478;BME280;12598;62.382;17.344;2023-04-25T04:36:50;100461.91;;;18.18;24.51
13478;BME280;12598;62.382;17.344;2023-04-25T04:37:53;100461.91;;;18.18;24.95
13478;BME280;12598;62.382;17.344;2023-04-25T04:38:58;100464.28;;;18.21;24.41
13478;BME280;12598;62.382;17.344;2023-04-25T04:40:14;100458.09;;;18.20;24.64
13478;BME280;12598;62.382;17.344;2023-04-25T04:41:23;100468.31;;;18.25;24.67
13478;BME280;12598;62.382;17.344;2023-04-25T04:42:46;100468.03;;;18.28;24.31
13478;BME280;12598;62.382;17.344;2023-04-25T04:43:56;100470.03;;;18.26;24.48
13478;BME280;12598;62.382;17.344;2023-04-25T04:45:10;100471.69;;;18.27;24.76
13478;BME280;12598;62.382;17.344;2023-04-25T04:46:32;100478.59;;;18.29;24.53
13478;BME280;12598;62.382;17.344;2023-04-25T04:47:52;100471.41;;;18.30;25.02
13478;BME280;12598;62.382;17.344;2023-04-25T04:49:29;100474.78;;;18.32;24.53
13478;BME280;12598;62.382;17.344;2023-04-25T04:50:50;100472.09;;;18.32;24.68
13478;BME280;12598;62.382;17.344;2023-04-25T04:51:51;100474.38;;;18.27;24.75
13478;BME280;12598;62.382;17.344;2023-04-25T04:53:12;100471.69;;;18.27;24.60
13478;BME280;12598;62.382;17.344;2023-04-25T04:54:29;100465.53;;;18.26;24.58
13478;BME280;12598;62.382;17.344;2023-04-25T04:55:49;100471.69;;;18.27;24.37
13478;BME280;12598;62.382;17.344;2023-04-25T04:57:27;100417.31;;;18.01;24.60
13478;BME280;12598;62.382;17.344;2023-04-25T04:58:52;100467.75;;;18.31;24.79
13478;BME280;12598;62.382;17.344;2023-04-25T05:00:14;100463.13;;;18.23;24.48
13478;BME280;12598;62.382;17.344;2023-04-25T05:01:19;100473.38;;;18.28;24.54
13478;BME280;12598;62.382;17.344;2023-04-25T05:02:31;100479.03;;;18.25;24.56
13478;BME280;12598;62.382;17.344;2023-04-25T05:03:52;100481.59;;;18.26;24.74
13478;BME280;12598;62.382;17.344;2023-04-25T05:05:14;100477.91;;;18.27;24.68
13478;BME280;12598;62.382;17.344;2023-04-25T05:06:37;100485.81;;;18.29;25.00
13478;BME280;12598;62.382;17.344;2023-04-25T05:08:02;100489.97;;;18.31;25.02
13478;BME280;12598;62.382;17.344;2023-04-25T05:09:23;100484.81;;;18.30;24.76
13478;BME280;12598;62.382;17.344;2023-04-25T05:11:05;100486.69;;;18.37;24.66
13478;BME280;12598;62.382;17.344;2023-04-25T05:12:13;100487.84;;;18.35;24.90
13478;BME280;12598;62.382;17.344;2023-04-25T05:13:30;100486.00;;;18.35;25.00
13478;BME280;12598;62.382;17.344;2023-04-25T05:14:49;100479.50;;;18.38;24.94
13478;BME280;12598;62.382;17.344;2023-04-25T05:16:08;100487.22;;;18.41;24.48
13478;BME280;12598;62.382;17.344;2023-04-25T05:17:33;100473.53;;;18.44;24.90
13478;BME280;12598;62.382;17.344;2023-04-25T05:18:58;100471.06;;;18.50;24.55
13478;BME280;12598;62.382;17.344;2023-04-25T05:20:26;100470.56;;;18.55;24.75
13478;BME280;12598;62.382;17.344;2023-04-25T05:21:45;100468.59;;;18.57;24.67
13478;BME280;12598;62.382;17.344;2023-04-25T05:23:00;100467.44;;;18.59;24.75
13478;BME280;12598;62.382;17.344;2023-04-25T05:24:28;100461.22;;;18.59;24.69
13478;BME280;12598;62.382;17.344;2023-04-25T05:25:50;100456.56;;;18.61;24.50
13478;BME280;12598;62.382;17.344;2023-04-25T05:27:31;100460.03;;;18.79;24.20
13478;BME280;12598;62.382;17.344;2023-04-25T05:28:36;100463.84;;;18.76;24.14
13478;BME280;12598;62.382;17.344;2023-04-25T05:29:44;100461.84;;;18.78;24.52
13478;BME280;12598;62.382;17.344;2023-04-25T05:31:10;100463.75;;;18.86;23.94
13478;BME280;12598;62.382;17.344;2023-04-25T05:32:30;100468.78;;;18.89;24.33
13478;BME280;12598;62.382;17.344;2023-04-25T05:33:32;100468.78;;;18.89;24.15
13478;BME280;12598;62.382;17.344;2023-04-25T05:34:35;100472.94;;;18.91;24.42
13478;BME280;12598;62.382;17.344;2023-04-25T05:35:40;100462.94;;;18.93;24.41
13478;BME280;12598;62.382;17.344;2023-04-25T05:36:43;100463.63;;;18.95;23.81
13478;BME280;12598;62.382;17.344;2023-04-25T05:37:44;100467.81;;;18.98;24.08
13478;BME280;12598;62.382;17.344;2023-04-25T05:38:48;100458.78;;;18.99;23.73
13478;BME280;12598;62.382;17.344;2023-04-25T05:40:15;100460.34;;;19.09;23.97
13478;BME280;12598;62.382;17.344;2023-04-25T05:41:36;100455.22;;;19.16;24.03